createdAt,value
2018-05-01T00:00:03.391Z,0.00
2018-05-01T00:01:03.330Z,0.00
2018-05-01T00:02:03.298Z,0.00
2018-05-01T00:03:03.272Z,0.00
2018-05-01T00:04:03.246Z,0.00
2018-05-01T00:05:03.254Z,0.00
2018-05-01T00:06:03.184Z,0.00
2018-05-01T00:07:03.184Z,0.00
2018-05-01T00:08:03.130Z,0.00
2018-05-01T00:09:03.101Z,0.00
2018-05-01T00:10:03.076Z,0.00
2018-05-01T00:11:03.083Z,0.00
2018-05-01T00:12:03.019Z,0.00
2018-05-01T00:13:02.995Z,0.00
2018-05-01T00:14:02.961Z,0.00
2018-05-01T00:15:02.935Z,0.00
2018-05-01T00:16:02.945Z,0.00
2018-05-01T00:17:02.882Z,0.00
2018-05-01T00:18:02.850Z,0.00
2018-05-01T00:19:02.822Z,0.00
2018-05-01T00:20:02.832Z,0.00
2018-05-01T00:21:02.769Z,0.00
2018-05-01T00:22:03.619Z,0.00
2018-05-01T00:23:02.747Z,0.00
2018-05-01T00:24:02.685Z,0.00
2018-05-01T00:25:02.713Z,0.00
2018-05-01T00:26:02.638Z,0.00
2018-05-01T00:27:02.602Z,0.00
2018-05-01T00:28:02.576Z,0.00
2018-05-01T00:29:02.552Z,0.00
2018-05-01T00:30:02.573Z,0.00
2018-05-01T00:31:02.495Z,0.00
2018-05-01T00:32:02.469Z,0.00
2018-05-01T00:33:02.445Z,0.00
2018-05-01T00:34:02.410Z,0.00
2018-05-01T00:35:02.413Z,0.00
2018-05-01T00:36:02.361Z,0.00
2018-05-01T00:37:02.364Z,0.00
2018-05-01T00:38:02.302Z,0.00
2018-05-01T00:39:02.275Z,0.00
2018-05-01T00:40:02.245Z,0.00
2018-05-01T00:41:02.221Z,0.00
2018-05-01T00:42:02.235Z,0.00
2018-05-01T00:43:02.198Z,0.00
2018-05-01T00:44:02.142Z,0.00
2018-05-01T00:45:02.107Z,0.00
2018-05-01T00:46:02.122Z,0.00
2018-05-01T00:47:02.060Z,0.00
2018-05-01T00:48:02.029Z,0.00
2018-05-01T00:49:02.004Z,0.00
2018-05-01T00:50:01.981Z,0.00
2018-05-01T00:51:01.983Z,0.00
2018-05-01T00:52:01.923Z,0.00
2018-05-01T00:53:01.903Z,0.00
2018-05-01T00:54:01.905Z,0.00
2018-05-01T00:55:01.875Z,0.00
2018-05-01T00:56:02.533Z,0.00
2018-05-01T00:57:01.787Z,0.00
2018-05-01T00:58:01.757Z,0.00
2018-05-01T00:59:01.733Z,0.00
2018-05-01T01:00:01.744Z,0.00
2018-05-01T01:01:01.677Z,0.00
2018-05-01T01:02:01.650Z,0.00
2018-05-01T01:03:01.624Z,0.00
2018-05-01T01:04:01.649Z,0.00
2018-05-01T01:05:01.577Z,0.00
2018-05-01T01:06:02.132Z,0.00
2018-05-01T01:07:01.515Z,0.00
2018-05-01T01:08:01.492Z,0.00
2018-05-01T01:09:01.499Z,0.00
2018-05-01T01:10:01.480Z,0.00
2018-05-01T01:11:01.412Z,0.00
2018-05-01T01:12:01.384Z,0.00
2018-05-01T01:13:01.380Z,0.00
2018-05-01T01:14:01.326Z,0.00
2018-05-01T01:15:01.339Z,0.00
2018-05-01T01:16:01.295Z,0.00
2018-05-01T01:17:01.246Z,0.00
2018-05-01T01:18:01.220Z,0.00
2018-05-01T01:19:01.206Z,0.00
2018-05-01T01:20:01.205Z,0.00
2018-05-01T01:21:01.173Z,0.00
2018-05-01T01:22:01.121Z,0.00
2018-05-01T01:23:01.086Z,0.00
2018-05-01T01:24:01.057Z,0.00
2018-05-01T01:25:01.035Z,0.00
2018-05-01T01:26:01.052Z,0.00
2018-05-01T01:27:00.982Z,0.00
2018-05-01T01:28:00.963Z,0.00
2018-05-01T01:29:00.924Z,0.00
2018-05-01T01:30:00.899Z,0.00
2018-05-01T01:31:00.926Z,0.00
2018-05-01T01:32:00.851Z,0.00
2018-05-01T01:33:00.822Z,0.00
2018-05-01T01:34:00.796Z,0.00
2018-05-01T01:35:00.766Z,0.00
2018-05-01T01:36:00.767Z,0.00
2018-05-01T01:37:00.743Z,0.00
2018-05-01T01:38:00.683Z,0.00
2018-05-01T01:39:00.701Z,0.00
2018-05-01T01:40:00.640Z,0.00
2018-05-01T01:41:00.608Z,0.00
2018-05-01T01:42:00.586Z,0.00
2018-05-01T01:43:00.558Z,0.00
2018-05-01T01:44:00.569Z,0.00
2018-05-01T01:45:00.500Z,0.00
2018-05-01T01:46:00.475Z,0.00
2018-05-01T01:47:00.454Z,0.00
2018-05-01T01:48:00.433Z,0.00
2018-05-01T01:49:00.425Z,0.00
2018-05-01T01:50:00.370Z,0.00
2018-05-01T01:51:00.344Z,0.00
2018-05-01T01:52:00.371Z,0.00
2018-05-01T01:53:00.293Z,0.00
2018-05-01T01:54:00.270Z,0.00
2018-05-01T01:55:00.270Z,0.00
2018-05-01T01:56:00.217Z,0.00
2018-05-01T01:57:00.191Z,0.00
2018-05-01T01:58:00.165Z,0.00
2018-05-01T01:59:00.143Z,0.00
2018-05-01T02:00:00.146Z,0.00
2018-05-01T02:01:00.087Z,0.00
2018-05-01T02:02:00.059Z,0.00
2018-05-01T02:03:00.068Z,0.00
2018-05-01T02:04:00.013Z,0.00
2018-05-01T02:05:00.015Z,0.00
2018-05-01T02:05:59.958Z,0.00
2018-05-01T02:06:59.929Z,0.00
2018-05-01T02:07:59.904Z,0.00
2018-05-01T02:08:59.911Z,0.00
2018-05-01T02:10:00.638Z,0.00
2018-05-01T02:10:59.834Z,0.00
2018-05-01T02:11:59.798Z,0.00
2018-05-01T02:12:59.778Z,0.00
2018-05-01T02:14:00.194Z,0.00
2018-05-01T02:14:59.725Z,0.00
2018-05-01T02:15:59.696Z,0.00
2018-05-01T02:16:59.668Z,0.00
2018-05-01T02:17:59.642Z,0.00
2018-05-01T02:18:59.667Z,0.00
2018-05-01T02:19:59.593Z,0.00
2018-05-01T02:20:59.563Z,0.00
2018-05-01T02:21:59.537Z,0.00
2018-05-01T02:22:59.518Z,0.00
2018-05-01T02:23:59.532Z,0.00
2018-05-01T02:24:59.463Z,0.00
2018-05-01T02:25:59.439Z,0.00
2018-05-01T02:26:59.406Z,0.00
2018-05-01T02:27:59.381Z,0.00
2018-05-01T02:28:59.401Z,0.00
2018-05-01T02:29:59.333Z,0.00
2018-05-01T02:30:59.314Z,0.00
2018-05-01T02:31:59.280Z,0.00
2018-05-01T02:32:59.251Z,0.00
2018-05-01T02:33:59.277Z,0.00
2018-05-01T02:34:59.194Z,0.00
2018-05-01T02:35:59.175Z,0.00
2018-05-01T02:36:59.148Z,0.00
2018-05-01T02:37:59.113Z,0.00
2018-05-01T02:38:59.125Z,0.00
2018-05-01T02:39:59.066Z,0.00
2018-05-01T02:40:59.069Z,0.00
2018-05-01T02:41:59.008Z,0.00
2018-05-01T02:42:58.981Z,0.00
2018-05-01T02:43:58.964Z,0.00
2018-05-01T02:44:58.928Z,0.00
2018-05-01T02:45:58.945Z,0.00
2018-05-01T02:46:58.890Z,0.00
2018-05-01T02:47:58.845Z,0.00
2018-05-01T02:48:58.828Z,0.00
2018-05-01T02:49:58.802Z,0.00
2018-05-01T02:50:58.796Z,0.00
2018-05-01T02:51:58.785Z,0.00
2018-05-01T02:52:58.715Z,0.00
2018-05-01T02:53:58.687Z,0.00
2018-05-01T02:54:58.661Z,0.00
2018-05-01T02:55:58.671Z,0.00
2018-05-01T02:56:58.612Z,0.00
2018-05-01T02:57:58.621Z,0.00
2018-05-01T02:58:58.552Z,0.00
2018-05-01T02:59:58.528Z,4.00
2018-05-01T03:00:58.536Z,4.00
2018-05-01T03:01:58.506Z,4.00
2018-05-01T03:02:58.447Z,0.00
2018-05-01T03:03:58.453Z,4.00
2018-05-01T03:04:58.389Z,4.00
2018-05-01T03:05:58.415Z,4.00
2018-05-01T03:06:58.372Z,8.00
2018-05-01T03:07:58.308Z,4.00
2018-05-01T03:08:58.282Z,8.00
2018-05-01T03:09:58.256Z,8.00
2018-05-01T03:10:58.227Z,12.00
2018-05-01T03:11:58.252Z,12.00
2018-05-01T03:12:58.203Z,12.00
2018-05-01T03:13:58.152Z,12.00
2018-05-01T03:14:58.117Z,16.00
2018-05-01T03:15:58.088Z,16.00
2018-05-01T03:16:58.123Z,16.00
2018-05-01T03:17:58.203Z,20.00
2018-05-01T03:18:58.014Z,20.00
2018-05-01T03:19:57.992Z,24.00
2018-05-01T03:20:57.956Z,24.00
2018-05-01T03:21:57.923Z,28.00
2018-05-01T03:22:57.932Z,32.00
2018-05-01T03:23:57.870Z,36.00
2018-05-01T03:24:57.888Z,40.00
2018-05-01T03:25:57.824Z,44.00
2018-05-01T03:26:57.788Z,52.00
2018-05-01T03:27:57.765Z,56.00
2018-05-01T03:28:57.745Z,60.00
2018-05-01T03:29:58.258Z,68.00
2018-05-01T03:30:57.694Z,80.00
2018-05-01T03:31:57.664Z,88.00
2018-05-01T03:32:57.626Z,100.00
2018-05-01T03:33:57.598Z,108.00
2018-05-01T03:34:57.622Z,124.00
2018-05-01T03:35:57.544Z,132.00
2018-05-01T03:36:57.519Z,144.00
2018-05-01T03:37:57.495Z,156.00
2018-05-01T03:38:57.511Z,180.00
2018-05-01T03:39:57.486Z,200.00
2018-05-01T03:40:57.419Z,220.00
2018-05-01T03:41:57.382Z,244.00
2018-05-01T03:42:57.355Z,268.00
2018-05-01T03:43:57.334Z,304.00
2018-05-01T03:44:57.349Z,320.00
2018-05-01T03:45:57.274Z,336.00
2018-05-01T03:46:57.256Z,352.00
2018-05-01T03:47:57.225Z,384.00
2018-05-01T03:48:58.154Z,404.00
2018-05-01T03:49:57.208Z,432.00
2018-05-01T03:50:57.177Z,460.00
2018-05-01T03:51:57.656Z,492.00
2018-05-01T03:52:57.123Z,516.00
2018-05-01T03:53:57.057Z,524.00
2018-05-01T03:54:57.035Z,540.00
2018-05-01T03:55:57.071Z,584.00
2018-05-01T03:56:57.015Z,620.00
2018-05-01T03:57:56.950Z,632.00
2018-05-01T03:58:56.973Z,632.00
2018-05-01T03:59:57.653Z,644.00
2018-05-01T04:00:56.878Z,660.00
2018-05-01T04:01:56.850Z,676.00
2018-05-01T04:02:56.820Z,688.00
2018-05-01T04:03:56.845Z,692.00
2018-05-01T04:04:56.764Z,700.00
2018-05-01T04:05:56.737Z,720.00
2018-05-01T04:06:56.729Z,776.00
2018-05-01T04:07:56.685Z,840.00
2018-05-01T04:08:56.712Z,924.00
2018-05-01T04:09:56.631Z,1048.00
2018-05-01T04:10:56.611Z,1160.00
2018-05-01T04:11:56.580Z,1244.00
2018-05-01T04:12:56.554Z,1300.00
2018-05-01T04:13:56.572Z,1348.00
2018-05-01T04:14:56.500Z,1380.00
2018-05-01T04:15:56.475Z,1332.00
2018-05-01T04:16:56.450Z,1284.00
2018-05-01T04:17:56.430Z,1288.00
2018-05-01T04:18:56.433Z,1300.00
2018-05-01T04:19:56.369Z,1328.00
2018-05-01T04:20:56.377Z,1372.00
2018-05-01T04:21:56.316Z,1420.00
2018-05-01T04:22:56.287Z,1476.00
2018-05-01T04:23:56.297Z,1544.00
2018-05-01T04:24:56.246Z,1644.00
2018-05-01T04:25:56.215Z,1728.00
2018-05-01T04:26:56.185Z,1848.00
2018-05-01T04:27:56.162Z,1952.00
2018-05-01T04:28:56.186Z,2040.00
2018-05-01T04:29:56.104Z,2180.00
2018-05-01T04:30:56.082Z,2304.00
2018-05-01T04:31:56.065Z,2408.00
2018-05-01T04:32:56.031Z,2488.00
2018-05-01T04:33:56.135Z,2600.00
2018-05-01T04:34:55.977Z,2784.00
2018-05-01T04:35:55.953Z,3100.00
2018-05-01T04:36:55.933Z,3252.00
2018-05-01T04:37:55.897Z,3328.00
2018-05-01T04:38:55.934Z,3468.00
2018-05-01T04:39:55.845Z,3536.00
2018-05-01T04:40:55.819Z,3736.00
2018-05-01T04:41:55.795Z,3752.00
2018-05-01T04:42:55.778Z,3788.00
2018-05-01T04:43:55.773Z,3636.00
2018-05-01T04:44:55.714Z,3744.00
2018-05-01T04:45:55.690Z,3752.00
2018-05-01T04:46:55.698Z,3632.00
2018-05-01T04:47:55.681Z,3500.00
2018-05-01T04:48:55.614Z,3264.00
2018-05-01T04:49:55.620Z,3064.00
2018-05-01T04:50:55.560Z,2976.00
2018-05-01T04:51:55.537Z,2868.00
2018-05-01T04:52:55.546Z,2932.00
2018-05-01T04:53:55.527Z,3016.00
2018-05-01T04:54:55.467Z,3184.00
2018-05-01T04:55:55.494Z,3260.00
2018-05-01T04:56:55.408Z,3412.00
2018-05-01T04:57:55.414Z,3560.00
2018-05-01T04:58:55.354Z,3460.00
2018-05-01T04:59:55.353Z,3776.00
2018-05-01T05:00:55.308Z,3716.00
2018-05-01T05:01:55.317Z,3620.00
2018-05-01T05:02:55.252Z,3536.00
2018-05-01T05:03:55.225Z,3400.00
2018-05-01T05:04:55.205Z,3348.00
2018-05-01T05:05:55.211Z,3256.00
2018-05-01T05:06:55.185Z,3160.00
2018-05-01T05:07:55.181Z,3172.00
2018-05-01T05:08:55.105Z,3168.00
2018-05-01T05:09:55.113Z,3176.00
2018-05-01T05:10:55.069Z,3180.00
2018-05-01T05:11:55.071Z,3212.00
2018-05-01T05:12:54.990Z,3284.00
2018-05-01T05:13:54.972Z,3508.00
2018-05-01T05:14:54.941Z,3492.00
2018-05-01T05:15:54.914Z,3744.00
2018-05-01T05:16:54.925Z,3864.00
2018-05-01T05:17:54.905Z,3796.00
2018-05-01T05:18:54.837Z,3772.00
2018-05-01T05:19:54.815Z,3732.00
2018-05-01T05:20:54.801Z,3632.00
2018-05-01T05:21:54.763Z,3564.00
2018-05-01T05:22:54.798Z,3608.00
2018-05-01T05:23:54.707Z,3764.00
2018-05-01T05:24:54.689Z,3872.00
2018-05-01T05:25:54.660Z,4008.00
2018-05-01T05:26:54.637Z,4124.00
2018-05-01T05:27:54.641Z,4152.00
2018-05-01T05:28:54.619Z,4204.00
2018-05-01T05:29:54.552Z,4328.00
2018-05-01T05:30:54.531Z,4572.00
2018-05-01T05:31:54.502Z,4768.00
2018-05-01T05:32:54.476Z,5200.00
2018-05-01T05:33:54.492Z,5568.00
2018-05-01T05:34:54.429Z,6100.00
2018-05-01T05:35:54.396Z,6540.00
2018-05-01T05:36:54.372Z,6660.00
2018-05-01T05:37:54.345Z,6612.00
2018-05-01T05:38:54.359Z,6300.00
2018-05-01T05:39:54.295Z,6060.00
2018-05-01T05:40:54.269Z,5964.00
2018-05-01T05:41:54.251Z,5880.00
2018-05-01T05:42:54.223Z,5668.00
2018-05-01T05:43:54.314Z,5472.00
2018-05-01T05:44:54.225Z,5360.00
2018-05-01T05:45:54.141Z,5472.00
2018-05-01T05:46:54.117Z,5152.00
2018-05-01T05:47:54.092Z,4632.00
2018-05-01T05:48:54.076Z,4480.00
2018-05-01T05:49:54.177Z,4976.00
2018-05-01T05:50:54.019Z,5312.00
2018-05-01T05:51:54.038Z,4904.00
2018-05-01T05:52:53.970Z,4396.00
2018-05-01T05:53:53.940Z,4428.00
2018-05-01T05:54:53.958Z,4980.00
2018-05-01T05:55:53.927Z,4804.00
2018-05-01T05:56:53.874Z,5112.00
2018-05-01T05:57:53.839Z,5196.00
2018-05-01T05:58:53.818Z,4592.00
2018-05-01T05:59:53.794Z,4072.00
2018-05-01T06:00:53.828Z,4116.00
2018-05-01T06:01:53.742Z,4012.00
2018-05-01T06:02:53.754Z,3964.00
2018-05-01T06:03:53.698Z,3992.00
2018-05-01T06:04:53.666Z,3904.00
2018-05-01T06:05:53.644Z,3968.00
2018-05-01T06:06:53.611Z,4204.00
2018-05-01T06:07:53.626Z,4328.00
2018-05-01T06:08:53.595Z,4088.00
2018-05-01T06:09:53.539Z,4260.00
2018-05-01T06:10:53.515Z,4284.00
2018-05-01T06:11:53.526Z,4584.00
2018-05-01T06:12:53.467Z,4956.00
2018-05-01T06:13:53.441Z,4916.00
2018-05-01T06:14:53.428Z,4892.00
2018-05-01T06:15:53.386Z,5908.00
2018-05-01T06:16:53.743Z,5928.00
2018-05-01T06:17:53.356Z,5256.00
2018-05-01T06:18:53.311Z,5648.00
2018-05-01T06:19:53.291Z,6696.00
2018-05-01T06:20:53.260Z,5688.00
2018-05-01T06:21:53.291Z,6632.00
2018-05-01T06:22:53.207Z,6520.00
2018-05-01T06:23:53.192Z,6072.00
2018-05-01T06:24:53.164Z,5532.00
2018-05-01T06:25:53.252Z,4628.00
2018-05-01T06:26:53.334Z,5036.00
2018-05-01T06:27:53.293Z,5028.00
2018-05-01T06:28:53.336Z,5500.00
2018-05-01T06:29:53.164Z,4724.00
2018-05-01T06:30:53.039Z,4896.00
2018-05-01T06:31:53.021Z,4472.00
2018-05-01T06:32:52.954Z,4516.00
2018-05-01T06:33:52.931Z,4888.00
2018-05-01T06:34:52.961Z,4736.00
2018-05-01T06:35:52.885Z,4660.00
2018-05-01T06:36:52.918Z,4800.00
2018-05-01T06:37:52.833Z,5024.00
2018-05-01T06:38:52.805Z,5508.00
2018-05-01T06:39:52.785Z,5908.00
2018-05-01T06:40:52.776Z,6208.00
2018-05-01T06:41:52.773Z,6464.00
2018-05-01T06:42:52.708Z,6620.00
2018-05-01T06:43:52.708Z,6772.00
2018-05-01T06:44:52.653Z,7060.00
2018-05-01T06:45:52.629Z,7388.00
2018-05-01T06:46:52.638Z,7648.00
2018-05-01T06:47:52.608Z,7468.00
2018-05-01T06:48:52.549Z,7648.00
2018-05-01T06:49:52.565Z,7776.00
2018-05-01T06:50:52.517Z,7640.00
2018-05-01T06:51:52.479Z,7592.00
2018-05-01T06:52:52.452Z,7676.00
2018-05-01T06:53:52.424Z,8288.00
2018-05-01T06:54:52.720Z,8748.00
2018-05-01T06:55:52.423Z,9464.00
2018-05-01T06:56:52.390Z,9512.00
2018-05-01T06:57:52.374Z,9636.00
2018-05-01T06:58:52.300Z,8996.00
2018-05-01T06:59:52.362Z,8992.00
2018-05-01T07:00:52.288Z,8900.00
2018-05-01T07:01:52.229Z,8760.00
2018-05-01T07:02:52.202Z,7724.00
2018-05-01T07:03:52.308Z,6696.00
2018-05-01T07:04:52.163Z,6172.00
2018-05-01T07:05:52.128Z,5872.00
2018-05-01T07:06:52.145Z,5680.00
2018-05-01T07:07:52.082Z,5428.00
2018-05-01T07:08:52.646Z,5496.00
2018-05-01T07:09:52.043Z,5264.00
2018-05-01T07:10:52.009Z,5204.00
2018-05-01T07:11:51.983Z,5216.00
2018-05-01T07:12:52.003Z,5224.00
2018-05-01T07:13:51.930Z,5104.00
2018-05-01T07:14:51.921Z,5084.00
2018-05-01T07:15:51.914Z,5412.00
2018-05-01T07:16:51.894Z,5572.00
2018-05-01T07:17:51.865Z,5728.00
2018-05-01T07:18:51.805Z,5900.00
2018-05-01T07:19:51.945Z,5960.00
2018-05-01T07:20:51.761Z,5948.00
2018-05-01T07:21:51.728Z,5912.00
2018-05-01T07:22:52.238Z,5948.00
2018-05-01T07:23:51.724Z,5944.00
2018-05-01T07:24:51.655Z,5980.00
2018-05-01T07:25:53.100Z,5892.00
2018-05-01T07:26:51.605Z,5764.00
2018-05-01T07:27:51.580Z,5636.00
2018-05-01T07:28:51.655Z,5568.00
2018-05-01T07:29:51.542Z,5512.00
2018-05-01T07:30:51.518Z,5756.00
2018-05-01T07:31:51.481Z,5872.00
2018-05-01T07:32:51.453Z,5928.00
2018-05-01T07:33:52.096Z,6084.00
2018-05-01T07:34:51.406Z,6284.00
2018-05-01T07:35:51.383Z,6156.00
2018-05-01T07:36:51.356Z,6004.00
2018-05-01T07:37:51.327Z,5828.00
2018-05-01T07:38:51.334Z,5704.00
2018-05-01T07:39:51.275Z,5564.00
2018-05-01T07:40:51.254Z,5580.00
2018-05-01T07:41:51.319Z,5516.00
2018-05-01T07:42:51.198Z,5360.00
2018-05-01T07:43:51.174Z,5192.00
2018-05-01T07:44:51.183Z,5132.00
2018-05-01T07:45:51.127Z,5024.00
2018-05-01T07:46:51.104Z,4980.00
2018-05-01T07:47:51.076Z,4888.00
2018-05-01T07:48:51.050Z,4824.00
2018-05-01T07:49:51.077Z,4844.00
2018-05-01T07:50:50.998Z,4792.00
2018-05-01T07:51:50.972Z,4696.00
2018-05-01T07:52:50.954Z,4616.00
2018-05-01T07:53:50.923Z,4512.00
2018-05-01T07:54:50.931Z,4464.00
2018-05-01T07:55:50.880Z,4432.00
2018-05-01T07:56:50.884Z,4396.00
2018-05-01T07:57:50.832Z,4468.00
2018-05-01T07:58:50.796Z,4448.00
2018-05-01T07:59:50.776Z,4468.00
2018-05-01T08:00:50.802Z,4512.00
2018-05-01T08:01:50.720Z,4616.00
2018-05-01T08:02:50.774Z,4764.00
2018-05-01T08:03:50.771Z,4968.00
2018-05-01T08:04:50.735Z,5348.00
2018-05-01T08:05:50.652Z,5996.00
2018-05-01T08:06:50.593Z,6692.00
2018-05-01T08:07:50.570Z,7316.00
2018-05-01T08:08:50.602Z,7556.00
2018-05-01T08:09:50.517Z,7440.00
2018-05-01T08:10:50.514Z,7384.00
2018-05-01T08:11:50.753Z,7512.00
2018-05-01T08:12:50.438Z,7608.00
2018-05-01T08:13:50.451Z,7680.00
2018-05-01T08:14:50.390Z,7600.00
2018-05-01T08:15:50.400Z,7292.00
2018-05-01T08:16:50.374Z,6948.00
2018-05-01T08:17:50.353Z,6760.00
2018-05-01T08:18:50.290Z,6828.00
2018-05-01T08:19:50.264Z,6936.00
2018-05-01T08:20:50.239Z,6824.00
2018-05-01T08:21:50.212Z,7348.00
2018-05-01T08:22:50.242Z,8012.00
2018-05-01T08:23:50.249Z,9188.00
2018-05-01T08:24:50.199Z,9524.00
2018-05-01T08:25:50.110Z,9372.00
2018-05-01T08:26:50.090Z,8724.00
2018-05-01T08:27:50.127Z,8420.00
2018-05-01T08:28:50.038Z,8264.00
2018-05-01T08:29:50.012Z,8524.00
2018-05-01T08:30:49.996Z,8928.00
2018-05-01T08:31:49.961Z,9056.00
2018-05-01T08:32:49.975Z,8876.00
2018-05-01T08:33:49.916Z,9168.00
2018-05-01T08:34:49.887Z,8976.00
2018-05-01T08:35:49.895Z,8264.00
2018-05-01T08:36:49.884Z,7664.00
2018-05-01T08:37:49.832Z,7372.00
2018-05-01T08:38:49.838Z,7180.00
2018-05-01T08:39:49.859Z,6572.00
2018-05-01T08:40:49.751Z,5732.00
2018-05-01T08:41:49.721Z,5124.00
2018-05-01T08:42:49.689Z,4348.00
2018-05-01T08:43:49.720Z,4408.00
2018-05-01T08:44:49.744Z,4508.00
2018-05-01T08:45:50.216Z,4440.00
2018-05-01T08:46:49.597Z,4372.00
2018-05-01T08:47:49.567Z,4432.00
2018-05-01T08:48:49.554Z,4368.00
2018-05-01T08:49:49.547Z,4268.00
2018-05-01T08:50:49.489Z,4284.00
2018-05-01T08:51:49.468Z,4320.00
2018-05-01T08:52:49.441Z,4316.00
2018-05-01T08:53:49.425Z,4292.00
2018-05-01T08:54:49.451Z,4244.00
2018-05-01T08:55:49.363Z,4208.00
2018-05-01T08:56:49.389Z,4216.00
2018-05-01T08:57:49.312Z,4212.00
2018-05-01T08:58:49.284Z,4240.00
2018-05-01T08:59:49.261Z,4216.00
2018-05-01T09:00:49.238Z,4264.00
2018-05-01T09:01:49.250Z,4272.00
2018-05-01T09:02:49.188Z,4224.00
2018-05-01T09:03:49.712Z,4300.00
2018-05-01T09:04:49.186Z,4368.00
2018-05-01T09:05:49.109Z,4264.00
2018-05-01T09:06:49.092Z,4380.00
2018-05-01T09:07:49.062Z,4308.00
2018-05-01T09:08:49.069Z,4636.00
2018-05-01T09:09:49.029Z,4420.00
2018-05-01T09:10:48.978Z,4324.00
2018-05-01T09:11:48.954Z,4392.00
2018-05-01T09:12:48.933Z,4216.00
2018-05-01T09:13:48.998Z,4264.00
2018-05-01T09:14:48.882Z,4148.00
2018-05-01T09:15:48.856Z,4220.00
2018-05-01T09:16:48.833Z,5344.00
2018-05-01T09:17:49.025Z,4628.00
2018-05-01T09:18:48.949Z,4280.00
2018-05-01T09:19:48.761Z,4356.00
2018-05-01T09:20:48.736Z,4176.00
2018-05-01T09:21:48.704Z,4260.00
2018-05-01T09:22:48.674Z,4164.00
2018-05-01T09:23:48.700Z,4568.00
2018-05-01T09:24:48.625Z,4184.00
2018-05-01T09:25:48.605Z,4112.00
2018-05-01T09:26:48.583Z,4092.00
2018-05-01T09:27:48.549Z,4160.00
2018-05-01T09:28:48.575Z,4060.00
2018-05-01T09:29:48.508Z,3924.00
2018-05-01T09:30:48.478Z,4128.00
2018-05-01T09:31:48.448Z,4108.00
2018-05-01T09:32:48.428Z,4064.00
2018-05-01T09:33:48.457Z,4048.00
2018-05-01T09:34:48.376Z,4040.00
2018-05-01T09:35:48.389Z,4048.00
2018-05-01T09:36:48.359Z,4052.00
2018-05-01T09:37:48.301Z,4060.00
2018-05-01T09:38:48.270Z,4188.00
2018-05-01T09:39:48.253Z,4244.00
2018-05-01T09:40:48.222Z,4216.00
2018-05-01T09:41:48.274Z,4248.00
2018-05-01T09:42:48.172Z,5132.00
2018-05-01T09:43:48.189Z,5092.00
2018-05-01T09:44:48.123Z,4888.00
2018-05-01T09:45:48.096Z,4576.00
2018-05-01T09:46:48.627Z,4512.00
2018-05-01T09:47:48.044Z,3848.00
2018-05-01T09:48:48.083Z,3976.00
2018-05-01T09:49:47.992Z,4516.00
2018-05-01T09:50:47.965Z,4252.00
2018-05-01T09:51:47.985Z,4352.00
2018-05-01T09:52:47.943Z,4156.00
2018-05-01T09:53:47.891Z,4200.00
2018-05-01T09:54:47.901Z,4380.00
2018-05-01T09:55:47.850Z,4660.00
2018-05-01T09:56:47.813Z,4616.00
2018-05-01T09:57:47.789Z,4664.00
2018-05-01T09:58:47.821Z,4248.00
2018-05-01T09:59:47.737Z,4156.00
2018-05-01T10:00:47.712Z,4112.00
2018-05-01T10:01:47.795Z,4080.00
2018-05-01T10:02:47.681Z,4128.00
2018-05-01T10:03:47.707Z,4276.00
2018-05-01T10:04:47.651Z,4492.00
2018-05-01T10:05:47.598Z,4456.00
2018-05-01T10:06:47.558Z,4740.00
2018-05-01T10:07:47.546Z,5592.00
2018-05-01T10:08:47.562Z,6808.00
2018-05-01T10:09:47.502Z,7644.00
2018-05-01T10:10:47.480Z,6288.00
2018-05-01T10:11:47.432Z,4952.00
2018-05-01T10:12:47.413Z,4248.00
2018-05-01T10:13:47.497Z,4156.00
2018-05-01T10:14:47.367Z,4152.00
2018-05-01T10:15:47.375Z,4040.00
2018-05-01T10:16:47.319Z,4128.00
2018-05-01T10:17:47.298Z,4080.00
2018-05-01T10:18:47.265Z,3960.00
2018-05-01T10:19:47.234Z,3928.00
2018-05-01T10:20:47.258Z,4080.00
2018-05-01T10:21:47.184Z,4160.00
2018-05-01T10:22:47.170Z,4232.00
2018-05-01T10:23:47.156Z,4076.00
2018-05-01T10:24:47.126Z,3960.00
2018-05-01T10:25:47.233Z,3968.00
2018-05-01T10:26:47.085Z,3984.00
2018-05-01T10:27:47.050Z,4012.00
2018-05-01T10:28:47.023Z,4080.00
2018-05-01T10:29:46.989Z,4028.00
2018-05-01T10:30:47.010Z,3976.00
2018-05-01T10:31:46.951Z,3964.00
2018-05-01T10:32:46.911Z,3956.00
2018-05-01T10:33:46.887Z,3972.00
2018-05-01T10:34:46.867Z,4004.00
2018-05-01T10:35:46.888Z,3992.00
2018-05-01T10:36:46.812Z,4004.00
2018-05-01T10:37:46.788Z,4068.00
2018-05-01T10:38:46.796Z,4152.00
2018-05-01T10:39:46.764Z,4184.00
2018-05-01T10:40:46.758Z,4216.00
2018-05-01T10:41:46.688Z,4228.00
2018-05-01T10:42:46.680Z,4252.00
2018-05-01T10:43:46.668Z,4284.00
2018-05-01T10:44:46.614Z,4212.00
2018-05-01T10:45:46.727Z,4328.00
2018-05-01T10:46:46.561Z,4352.00
2018-05-01T10:47:46.541Z,4328.00
2018-05-01T10:48:46.514Z,4476.00
2018-05-01T10:49:46.502Z,4368.00
2018-05-01T10:50:46.508Z,4288.00
2018-05-01T10:51:46.437Z,4844.00
2018-05-01T10:52:46.420Z,5308.00
2018-05-01T10:53:46.426Z,6536.00
2018-05-01T10:54:46.423Z,7368.00
2018-05-01T10:55:46.338Z,6452.00
2018-05-01T10:56:46.347Z,5872.00
2018-05-01T10:57:46.292Z,7440.00
2018-05-01T10:58:46.271Z,8724.00
2018-05-01T10:59:46.299Z,9128.00
2018-05-01T11:00:46.216Z,7268.00
2018-05-01T11:01:46.188Z,6376.00
2018-05-01T11:02:46.225Z,5532.00
2018-05-01T11:03:46.140Z,4924.00
2018-05-01T11:04:46.156Z,4728.00
2018-05-01T11:05:46.094Z,4644.00
2018-05-01T11:06:46.072Z,5208.00
2018-05-01T11:07:46.079Z,6916.00
2018-05-01T11:08:46.021Z,7288.00
2018-05-01T11:09:46.059Z,7024.00
2018-05-01T11:10:45.990Z,6720.00
2018-05-01T11:11:46.002Z,6304.00
2018-05-01T11:12:45.924Z,6484.00
2018-05-01T11:13:45.936Z,6256.00
2018-05-01T11:14:45.879Z,6432.00
2018-05-01T11:15:45.990Z,7396.00
2018-05-01T11:16:45.827Z,7128.00
2018-05-01T11:17:45.825Z,8808.00
2018-05-01T11:18:45.792Z,10192.00
2018-05-01T11:19:45.802Z,12268.00
2018-05-01T11:20:45.795Z,11136.00
2018-05-01T11:21:45.714Z,9468.00
2018-05-01T11:22:45.697Z,8812.00
2018-05-01T11:23:45.665Z,9816.00
2018-05-01T11:24:45.735Z,10836.00
2018-05-01T11:25:45.633Z,11048.00
2018-05-01T11:26:45.621Z,11612.00
2018-05-01T11:27:45.580Z,12508.00
2018-05-01T11:28:45.548Z,12916.00
2018-05-01T11:29:45.561Z,9648.00
2018-05-01T11:30:45.520Z,8132.00
2018-05-01T11:31:45.546Z,8740.00
2018-05-01T11:32:45.466Z,11000.00
2018-05-01T11:33:45.427Z,12880.00
2018-05-01T11:34:45.410Z,13516.00
2018-05-01T11:35:45.423Z,12068.00
2018-05-01T11:36:45.365Z,9436.00
2018-05-01T11:37:45.339Z,8072.00
2018-05-01T11:38:45.314Z,10840.00
2018-05-01T11:39:45.293Z,9828.00
2018-05-01T11:40:45.374Z,8840.00
2018-05-01T11:41:45.264Z,8412.00
2018-05-01T11:42:45.243Z,9532.00
2018-05-01T11:43:45.216Z,10896.00
2018-05-01T11:44:45.205Z,12908.00
2018-05-01T11:45:45.197Z,11700.00
2018-05-01T11:46:45.162Z,10864.00
2018-05-01T11:47:45.148Z,9544.00
2018-05-01T11:48:45.099Z,9132.00
2018-05-01T11:49:45.060Z,10124.00
2018-05-01T11:50:45.050Z,11468.00
2018-05-01T11:51:45.049Z,12244.00
2018-05-01T11:52:44.996Z,11700.00
2018-05-01T11:53:44.994Z,8940.00
2018-05-01T11:54:45.005Z,7792.00
2018-05-01T11:55:44.960Z,7740.00
2018-05-01T11:56:44.903Z,9224.00
2018-05-01T11:57:44.881Z,11428.00
2018-05-01T11:58:44.867Z,13660.00
2018-05-01T11:59:44.883Z,14636.00
2018-05-01T12:00:44.824Z,12672.00
2018-05-01T12:01:44.797Z,10752.00
2018-05-01T12:02:44.789Z,11624.00
2018-05-01T12:03:44.752Z,13320.00
2018-05-01T12:04:44.772Z,12524.00
2018-05-01T12:05:44.707Z,10828.00
2018-05-01T12:06:44.685Z,10776.00
2018-05-01T12:07:44.675Z,12460.00
2018-05-01T12:08:44.678Z,15088.00
2018-05-01T12:09:44.676Z,13940.00
2018-05-01T12:10:44.589Z,13096.00
2018-05-01T12:11:44.569Z,13068.00
2018-05-01T12:12:44.550Z,10368.00
2018-05-01T12:13:44.532Z,10092.00
2018-05-01T12:14:44.728Z,10076.00
2018-05-01T12:15:44.487Z,9332.00
2018-05-01T12:16:44.483Z,9996.00
2018-05-01T12:17:44.466Z,12004.00
2018-05-01T12:18:44.411Z,12324.00
2018-05-01T12:19:44.401Z,11708.00
2018-05-01T12:20:44.364Z,10864.00
2018-05-01T12:21:44.387Z,9840.00
2018-05-01T12:22:44.361Z,8808.00
2018-05-01T12:23:44.321Z,8388.00